createdAt,value
2023-01-08T00:01:09.028Z,81.19
2023-01-08T00:03:36.393Z,80.98
2023-01-08T00:06:09.114Z,80.72
2023-01-08T00:08:35.765Z,81.37
2023-01-08T00:11:02.265Z,81.18
2023-01-08T00:13:29.368Z,81.06
2023-01-08T00:15:56.025Z,80.47
2023-01-08T00:18:24.185Z,80.75
2023-01-08T00:20:50.646Z,80.98
2023-01-08T00:23:19.453Z,80.92
2023-01-08T00:25:46.537Z,81.74
2023-01-08T00:28:15.014Z,81.35
2023-01-08T00:30:42.221Z,82.22
2023-01-08T00:33:11.993Z,82.11
2023-01-08T00:35:39.303Z,82.48
2023-01-08T00:38:06.911Z,82.02
2023-01-08T00:40:34.824Z,82.04
2023-01-08T00:43:02.078Z,81.82
2023-01-08T00:45:28.605Z,81.66
2023-01-08T00:47:55.170Z,81.63
2023-01-08T00:50:21.643Z,82.21
2023-01-08T00:52:48.102Z,81.88
2023-01-08T00:55:14.822Z,81.97
2023-01-08T00:57:41.293Z,82.02
2023-01-08T01:00:11.303Z,81.93
2023-01-08T01:02:38.609Z,81.97
2023-01-08T01:05:05.628Z,81.35
2023-01-08T01:07:33.717Z,81.80
2023-01-08T01:10:00.743Z,81.39
2023-01-08T01:12:27.335Z,81.55
2023-01-08T01:14:54.144Z,81.95
2023-01-08T01:17:20.825Z,81.58
2023-01-08T01:19:47.300Z,81.80
2023-01-08T01:22:13.853Z,82.35
2023-01-08T01:24:40.417Z,82.33
2023-01-08T01:27:07.061Z,82.82
2023-01-08T01:29:33.618Z,82.96
2023-01-08T01:32:00.111Z,82.60
2023-01-08T01:34:26.676Z,83.57
2023-01-08T01:36:53.157Z,82.92
2023-01-08T01:39:20.090Z,82.65
2023-01-08T01:41:47.438Z,82.54
2023-01-08T01:44:52.628Z,82.88
2023-01-08T01:47:30.623Z,83.25
2023-01-08T01:50:12.822Z,82.52
2023-01-08T01:53:00.240Z,83.33
2023-01-08T01:55:27.888Z,83.71
2023-01-08T01:58:11.301Z,83.11
2023-01-08T02:00:38.470Z,82.91
2023-01-08T02:03:06.943Z,83.19
2023-01-08T02:06:15.792Z,83.49
2023-01-08T02:09:08.478Z,83.69
2023-01-08T02:11:37.641Z,83.55
2023-01-08T02:14:16.340Z,83.06
2023-01-08T02:16:48.067Z,83.41
2023-01-08T02:19:41.200Z,83.90
2023-01-08T02:22:38.711Z,83.50
2023-01-08T02:25:27.467Z,82.71
2023-01-08T02:27:57.118Z,82.91
2023-01-08T02:30:25.287Z,82.58
2023-01-08T02:32:51.813Z,83.60
2023-01-08T02:35:18.431Z,82.88
2023-01-08T02:37:45.565Z,83.23
2023-01-08T02:40:35.785Z,83.56
2023-01-08T02:43:17.960Z,83.27
2023-01-08T02:45:50.592Z,83.04
2023-01-08T02:48:32.029Z,83.15
2023-01-08T02:51:10.948Z,83.10
2023-01-08T02:53:45.606Z,82.70
2023-01-08T02:56:19.984Z,83.33
2023-01-08T02:58:49.184Z,83.18
2023-01-08T03:01:17.840Z,83.14
2023-01-08T03:03:49.306Z,83.17
2023-01-08T03:06:19.078Z,82.97
2023-01-08T03:08:48.765Z,82.17
2023-01-08T03:11:18.708Z,82.16
2023-01-08T03:13:54.253Z,82.44
2023-01-08T03:16:35.529Z,82.01
2023-01-08T03:19:25.612Z,81.82
2023-01-08T03:21:52.501Z,82.15
2023-01-08T03:24:23.474Z,82.19
2023-01-08T03:26:53.802Z,82.47
2023-01-08T03:29:24.417Z,82.10
2023-01-08T03:31:55.003Z,82.75
2023-01-08T03:34:24.648Z,81.76
2023-01-08T03:36:55.527Z,82.30
2023-01-08T03:39:31.239Z,81.74
2023-01-08T03:42:02.528Z,81.85
2023-01-08T03:44:29.135Z,82.43
2023-01-08T03:46:57.794Z,82.17
2023-01-08T03:49:28.499Z,82.15
2023-01-08T03:51:55.222Z,82.28
2023-01-08T03:54:25.422Z,82.58
2023-01-08T03:56:51.958Z,81.97
2023-01-08T03:59:18.913Z,82.33
2023-01-08T04:01:45.871Z,82.11
2023-01-08T04:04:12.596Z,82.35
2023-01-08T04:06:39.092Z,82.67
2023-01-08T04:09:05.661Z,82.53
2023-01-08T04:11:32.405Z,82.19
2023-01-08T04:13:59.275Z,82.43
2023-01-08T04:16:25.846Z,82.94
2023-01-08T04:18:52.352Z,82.87
2023-01-08T04:21:18.878Z,82.84
2023-01-08T04:23:45.704Z,82.74
2023-01-08T04:26:12.213Z,82.92
2023-01-08T04:28:38.725Z,83.35
2023-01-08T04:31:09.962Z,82.78
2023-01-08T04:33:37.069Z,82.94
2023-01-08T04:36:05.244Z,83.23
2023-01-08T04:38:32.191Z,83.17
2023-01-08T04:40:59.951Z,83.51
2023-01-08T04:43:27.659Z,84.42
2023-01-08T04:45:58.884Z,84.61
2023-01-08T04:48:25.855Z,84.05
2023-01-08T04:50:52.506Z,84.56
2023-01-08T04:53:19.034Z,84.74
2023-01-08T04:55:45.573Z,84.97
2023-01-08T04:58:12.361Z,84.55
2023-01-08T05:00:40.096Z,85.02
2023-01-08T05:03:06.822Z,85.49
2023-01-08T05:05:34.592Z,85.81
2023-01-08T05:08:01.077Z,85.42
2023-01-08T05:10:27.776Z,85.80
2023-01-08T05:12:58.830Z,86.06
2023-01-08T05:15:25.943Z,85.82
2023-01-08T05:18:05.824Z,86.23
2023-01-08T05:20:33.310Z,86.37
2023-01-08T05:22:59.788Z,86.48
2023-01-08T05:25:26.242Z,86.62
2023-01-08T05:27:52.810Z,86.22
2023-01-08T05:30:19.789Z,86.43
2023-01-08T05:32:46.287Z,86.55
2023-01-08T05:35:12.830Z,86.58
2023-01-08T05:37:39.390Z,86.75
2023-01-08T05:40:06.568Z,87.32
2023-01-08T05:42:36.550Z,87.10
2023-01-08T05:45:05.027Z,86.93
2023-01-08T05:47:32.909Z,87.49
2023-01-08T05:49:59.501Z,86.69
2023-01-08T05:52:26.649Z,87.01
2023-01-08T05:54:53.194Z,86.59
2023-01-08T05:57:19.741Z,86.63
2023-01-08T05:59:46.266Z,86.67
2023-01-08T06:02:12.834Z,87.20
2023-01-08T06:04:39.801Z,87.13
2023-01-08T06:07:06.367Z,86.82
2023-01-08T06:09:32.866Z,87.16
2023-01-08T06:11:59.420Z,87.19
2023-01-08T06:14:25.905Z,87.10
2023-01-08T06:16:52.487Z,87.19
2023-01-08T06:19:19.093Z,87.14
2023-01-08T06:21:45.708Z,88.17
2023-01-08T06:24:12.177Z,88.83
2023-01-08T06:26:38.991Z,89.55
2023-01-08T06:29:05.537Z,89.52
2023-01-08T06:31:32.504Z,90.03
2023-01-08T06:33:59.155Z,89.90
2023-01-08T06:36:25.704Z,90.28
2023-01-08T06:38:52.325Z,91.05
2023-01-08T06:41:18.823Z,91.50
2023-01-08T06:43:45.408Z,92.34
2023-01-08T06:46:11.968Z,92.91
2023-01-08T06:48:38.494Z,93.17
2023-01-08T06:51:05.463Z,93.87
2023-01-08T06:53:32.613Z,94.18
2023-01-08T06:55:59.260Z,94.31
2023-01-08T06:58:27.411Z,94.89
2023-01-08T07:00:54.020Z,94.81
2023-01-08T07:03:20.783Z,95.39
2023-01-08T07:05:47.380Z,95.94
2023-01-08T07:08:15.395Z,95.91
2023-01-08T07:10:43.277Z,96.21
2023-01-08T07:13:10.375Z,96.93
2023-01-08T07:15:37.386Z,96.88
2023-01-08T07:18:06.151Z,97.60
2023-01-08T07:20:34.404Z,97.69
2023-01-08T07:23:06.099Z,97.76
2023-01-08T07:25:33.372Z,97.89
2023-01-08T07:28:00.398Z,98.08
2023-01-08T07:30:30.150Z,98.78
2023-01-08T07:33:01.305Z,98.91
2023-01-08T07:35:28.212Z,98.95
2023-01-08T07:37:55.525Z,99.65
2023-01-08T07:40:22.492Z,99.59
2023-01-08T07:42:49.084Z,99.27
2023-01-08T07:45:15.604Z,99.38
2023-01-08T07:47:42.090Z,99.57
2023-01-08T07:50:09.200Z,99.40
2023-01-08T07:52:35.627Z,99.67
2023-01-08T07:55:02.160Z,99.90
2023-01-08T07:57:30.111Z,99.65
2023-01-08T07:59:56.819Z,100.00
2023-01-08T08:02:23.431Z,99.59
2023-01-08T08:04:50.225Z,99.69
2023-01-08T08:07:16.731Z,99.89
2023-01-08T08:09:43.327Z,100.00
2023-01-08T08:12:09.830Z,100.00
2023-01-08T08:14:36.368Z,100.00
2023-01-08T08:17:02.991Z,100.00
2023-01-08T08:19:29.712Z,100.00
2023-01-08T08:21:56.279Z,100.00
2023-01-08T08:24:22.745Z,100.00
2023-01-08T08:26:50.255Z,100.00
2023-01-08T08:29:17.087Z,100.00
2023-01-08T08:31:43.850Z,100.00
2023-01-08T08:34:10.373Z,100.00
2023-01-08T08:36:36.885Z,100.00
2023-01-08T08:39:04.449Z,100.00
2023-01-08T08:41:30.963Z,100.00
2023-01-08T08:43:57.580Z,100.00
2023-01-08T08:46:25.505Z,100.00
2023-01-08T08:48:52.317Z,100.00
2023-01-08T08:51:19.101Z,100.00
2023-01-08T08:53:45.560Z,100.00
2023-01-08T08:56:12.131Z,100.00
2023-01-08T08:58:39.115Z,100.00
2023-01-08T09:01:05.991Z,100.00
2023-01-08T09:03:32.558Z,100.00
2023-01-08T09:05:59.967Z,100.00
2023-01-08T09:08:26.900Z,100.00
2023-01-08T09:10:53.395Z,100.00
2023-01-08T09:13:20.146Z,100.00
2023-01-08T09:15:46.743Z,100.00
2023-01-08T09:18:15.897Z,100.00
2023-01-08T09:20:43.139Z,100.00
2023-01-08T09:23:10.151Z,100.00
2023-01-08T09:25:38.368Z,100.00
2023-01-08T09:28:07.840Z,100.00
2023-01-08T09:30:35.230Z,100.00
2023-01-08T09:33:03.722Z,100.00
2023-01-08T09:35:34.536Z,100.00
2023-01-08T09:38:01.647Z,100.00
2023-01-08T09:40:39.264Z,100.00
2023-01-08T09:43:06.379Z,100.00
2023-01-08T09:45:38.128Z,100.00
2023-01-08T09:48:12.157Z,100.00
2023-01-08T09:50:39.067Z,100.00
2023-01-08T09:53:05.703Z,100.00
2023-01-08T09:55:34.363Z,100.00
2023-01-08T09:58:03.298Z,100.00
2023-01-08T10:00:33.808Z,100.00
2023-01-08T10:03:00.763Z,100.00
2023-01-08T10:05:28.531Z,100.00
2023-01-08T10:07:55.279Z,100.00
2023-01-08T10:10:29.320Z,100.00
2023-01-08T10:12:56.453Z,100.00
2023-01-08T10:15:23.578Z,100.00
2023-01-08T10:17:59.277Z,100.00
2023-01-08T10:20:26.583Z,100.00
2023-01-08T10:22:54.539Z,100.00
2023-01-08T10:25:25.814Z,100.00
2023-01-08T10:27:57.132Z,100.00
2023-01-08T10:30:40.177Z,100.00
2023-01-08T10:33:14.851Z,100.00
2023-01-08T10:35:42.891Z,99.54
2023-01-08T10:38:26.732Z,98.35
2023-01-08T10:40:53.447Z,97.50
2023-01-08T10:43:54.163Z,96.94
2023-01-08T10:46:31.785Z,96.39
2023-01-08T10:49:01.871Z,96.35
2023-01-08T10:51:30.920Z,95.38
2023-01-08T10:54:13.127Z,95.18
2023-01-08T10:56:43.029Z,94.77
2023-01-08T10:59:23.769Z,94.11
2023-01-08T11:01:53.159Z,93.91
2023-01-08T11:04:32.719Z,93.93
2023-01-08T11:07:02.472Z,94.24
2023-01-08T11:09:33.805Z,93.36
2023-01-08T11:12:01.137Z,93.50
2023-01-08T11:14:38.205Z,93.76
2023-01-08T11:17:12.553Z,93.41
2023-01-08T11:19:39.962Z,93.49
2023-01-08T11:22:19.568Z,93.57
2023-01-08T11:24:47.689Z,93.09
2023-01-08T11:27:26.887Z,92.15
2023-01-08T11:30:12.277Z,92.47
2023-01-08T11:32:46.511Z,92.90
2023-01-08T11:35:28.630Z,92.79
2023-01-08T11:38:02.839Z,92.51
2023-01-08T11:40:50.377Z,91.49
2023-01-08T11:44:00.152Z,92.00
2023-01-08T11:47:04.974Z,91.55
2023-01-08T11:49:51.259Z,91.42
2023-01-08T11:52:33.296Z,91.39
2023-01-08T11:55:20.253Z,90.76
2023-01-08T11:58:02.040Z,91.06
2023-01-08T12:00:57.293Z,90.44
2023-01-08T12:03:36.685Z,90.04
2023-01-08T12:06:21.773Z,90.67
2023-01-08T12:09:10.547Z,90.17
2023-01-08T12:11:45.478Z,90.09
2023-01-08T12:14:20.339Z,89.89
2023-01-08T12:16:50.365Z,89.68
2023-01-08T12:19:20.637Z,90.03
2023-01-08T12:22:10.186Z,90.48
2023-01-08T12:25:01.413Z,90.45
2023-01-08T12:28:00.412Z,89.82
2023-01-08T12:30:48.489Z,90.00
2023-01-08T12:33:36.925Z,89.66
2023-01-08T12:36:10.629Z,89.64
2023-01-08T12:38:44.856Z,90.02
2023-01-08T12:41:13.760Z,90.15
2023-01-08T12:44:04.011Z,90.40
2023-01-08T12:46:36.300Z,90.49
2023-01-08T12:49:06.413Z,90.45
2023-01-08T12:52:02.796Z,90.11
2023-01-08T12:54:38.266Z,90.16
2023-01-08T12:57:25.264Z,89.70
2023-01-08T13:00:04.037Z,89.63
2023-01-08T13:02:34.095Z,89.81
2023-01-08T13:05:28.808Z,90.33
2023-01-08T13:08:02.597Z,90.30
2023-01-08T13:10:41.116Z,90.18
2023-01-08T13:13:23.204Z,89.87
2023-01-08T13:15:50.141Z,90.06
2023-01-08T13:18:20.020Z,89.86
2023-01-08T13:20:57.560Z,89.85
2023-01-08T13:23:27.329Z,88.97
2023-01-08T13:25:57.357Z,89.24
2023-01-08T13:28:44.868Z,89.48
2023-01-08T13:31:20.577Z,88.82
2023-01-08T13:33:49.121Z,88.62
2023-01-08T13:36:27.404Z,88.57
2023-01-08T13:39:03.085Z,87.87
2023-01-08T13:41:42.862Z,88.03
2023-01-08T13:44:28.948Z,87.48
2023-01-08T13:47:02.130Z,87.50
2023-01-08T13:49:32.530Z,87.82
2023-01-08T13:51:59.304Z,87.74
2023-01-08T13:54:40.372Z,87.20
2023-01-08T13:57:19.997Z,86.74
2023-01-08T13:59:54.199Z,86.36
2023-01-08T14:02:42.590Z,86.08
2023-01-08T14:05:22.256Z,85.96
2023-01-08T14:07:48.944Z,86.40
2023-01-08T14:10:17.039Z,85.62
2023-01-08T14:12:44.124Z,84.90
2023-01-08T14:15:20.014Z,84.48
2023-01-08T14:17:46.962Z,85.08
2023-01-08T14:20:19.793Z,84.81
2023-01-08T14:22:46.403Z,85.24
2023-01-08T14:25:16.954Z,85.15
2023-01-08T14:27:54.058Z,85.82
2023-01-08T14:30:20.968Z,86.76
2023-01-08T14:32:47.451Z,86.23
2023-01-08T14:35:20.931Z,86.92
2023-01-08T14:37:47.563Z,87.07
2023-01-08T14:40:27.456Z,87.53
2023-01-08T14:42:54.635Z,87.72
2023-01-08T14:45:28.252Z,88.04
2023-01-08T14:48:15.023Z,88.45
2023-01-08T14:50:55.833Z,88.89
2023-01-08T14:53:28.618Z,89.10
2023-01-08T14:55:57.484Z,89.36
2023-01-08T14:58:29.944Z,89.55
2023-01-08T15:01:00.372Z,90.06
2023-01-08T15:03:31.928Z,90.28
2023-01-08T15:05:58.725Z,90.39
2023-01-08T15:08:32.249Z,90.79
2023-01-08T15:11:19.700Z,90.92
2023-01-08T15:13:47.737Z,91.20
2023-01-08T15:16:24.666Z,90.95
2023-01-08T15:19:01.565Z,91.25
2023-01-08T15:21:28.225Z,90.75
2023-01-08T15:23:56.963Z,90.19
2023-01-08T15:26:24.694Z,89.86
2023-01-08T15:28:55.056Z,89.45
2023-01-08T15:31:29.317Z,89.50
2023-01-08T15:33:57.120Z,89.09
2023-01-08T15:36:23.763Z,88.65
2023-01-08T15:38:50.608Z,88.60
2023-01-08T15:41:39.531Z,87.83
2023-01-08T15:44:06.926Z,88.04
2023-01-08T15:46:33.459Z,88.04
2023-01-08T15:48:59.927Z,87.95
2023-01-08T15:51:29.818Z,88.37
2023-01-08T15:53:56.272Z,87.74
2023-01-08T15:56:22.812Z,88.29
2023-01-08T15:58:49.338Z,87.97
2023-01-08T16:01:16.007Z,88.10
2023-01-08T16:03:42.737Z,88.43
2023-01-08T16:06:09.792Z,89.02
2023-01-08T16:08:36.729Z,89.03
2023-01-08T16:11:03.169Z,89.60
2023-01-08T16:13:29.643Z,89.90
2023-01-08T16:15:56.214Z,90.12
2023-01-08T16:18:22.663Z,89.61
2023-01-08T16:20:49.176Z,90.36
2023-01-08T16:23:16.400Z,90.71
2023-01-08T16:25:42.893Z,90.35
2023-01-08T16:28:09.834Z,90.52
2023-01-08T16:30:36.575Z,90.24
2023-01-08T16:33:03.211Z,90.69
2023-01-08T16:35:29.745Z,89.59
2023-01-08T16:37:56.541Z,90.53
2023-01-08T16:40:22.960Z,90.20
2023-01-08T16:42:49.478Z,90.18
2023-01-08T16:45:16.102Z,91.24
2023-01-08T16:47:42.882Z,90.78
2023-01-08T16:50:10.986Z,90.70
2023-01-08T16:52:38.860Z,91.32
2023-01-08T16:55:06.805Z,90.89
2023-01-08T16:57:33.318Z,90.54
2023-01-08T17:00:00.062Z,91.01
2023-01-08T17:02:27.333Z,90.59
2023-01-08T17:04:54.070Z,91.09
2023-01-08T17:07:20.602Z,91.38
2023-01-08T17:09:47.222Z,91.20
2023-01-08T17:12:22.523Z,91.37
2023-01-08T17:14:50.790Z,91.31
2023-01-08T17:17:17.965Z,91.57
2023-01-08T17:19:44.478Z,91.10
2023-01-08T17:22:11.009Z,90.73
2023-01-08T17:24:37.664Z,91.15
2023-01-08T17:27:04.297Z,90.97
2023-01-08T17:29:31.180Z,91.13
2023-01-08T17:31:58.095Z,91.21
2023-01-08T17:34:24.956Z,91.24
2023-01-08T17:36:51.555Z,91.01
2023-01-08T17:39:18.140Z,90.48
2023-01-08T17:42:03.303Z,90.96
2023-01-08T17:44:31.073Z,90.71
2023-01-08T17:46:57.697Z,91.66
2023-01-08T17:49:24.375Z,91.50
2023-01-08T17:51:53.294Z,91.46
2023-01-08T17:54:19.779Z,91.65
2023-01-08T17:56:48.801Z,92.16
2023-01-08T17:59:17.344Z,91.37
2023-01-08T18:01:45.488Z,91.43
2023-01-08T18:04:14.429Z,92.00
2023-01-08T18:06:42.199Z,92.25
2023-01-08T18:09:10.221Z,92.57
2023-01-08T18:11:37.134Z,93.05
2023-01-08T18:14:04.215Z,92.56
2023-01-08T18:16:32.413Z,92.99
2023-01-08T18:19:00.202Z,92.92
2023-01-08T18:21:27.897Z,92.83
2023-01-08T18:23:54.899Z,92.92
2023-01-08T18:26:22.330Z,92.95
2023-01-08T18:28:51.063Z,92.83
2023-01-08T18:31:17.832Z,93.33
2023-01-08T18:33:44.444Z,92.78
2023-01-08T18:36:12.597Z,92.82
2023-01-08T18:38:41.339Z,93.52
2023-01-08T18:41:09.513Z,92.57
2023-01-08T18:43:36.877Z,92.48
2023-01-08T18:46:06.078Z,93.01
2023-01-08T18:48:33.987Z,92.63
2023-01-08T18:51:07.600Z,93.04
2023-01-08T18:53:34.251Z,92.70
2023-01-08T18:56:01.580Z,92.75
2023-01-08T18:58:28.822Z,92.47
2023-01-08T19:00:55.640Z,92.67
2023-01-08T19:03:22.608Z,92.51
2023-01-08T19:05:49.744Z,92.74
2023-01-08T19:08:16.495Z,92.20
2023-01-08T19:10:43.001Z,92.51
2023-01-08T19:13:09.519Z,92.70
2023-01-08T19:15:36.170Z,93.32
2023-01-08T19:18:05.043Z,93.15
2023-01-08T19:20:31.698Z,93.51
2023-01-08T19:22:58.250Z,93.57
2023-01-08T19:25:24.888Z,93.55
2023-01-08T19:27:51.796Z,93.47
2023-01-08T19:30:18.502Z,93.97
2023-01-08T19:32:46.503Z,93.62
2023-01-08T19:35:13.108Z,92.85
2023-01-08T19:37:39.964Z,93.54
2023-01-08T19:40:07.286Z,93.21
2023-01-08T19:42:53.280Z,93.01
2023-01-08T19:45:19.791Z,93.03
2023-01-08T19:47:46.322Z,93.05
2023-01-08T19:50:12.970Z,92.87
2023-01-08T19:52:39.595Z,92.98
2023-01-08T19:55:06.330Z,92.46
2023-01-08T19:57:33.059Z,92.25
2023-01-08T20:00:00.142Z,92.57
2023-01-08T20:02:27.113Z,91.83
2023-01-08T20:04:53.698Z,92.30
2023-01-08T20:07:20.658Z,92.50
2023-01-08T20:09:47.120Z,91.62
2023-01-08T20:12:14.753Z,91.75
2023-01-08T20:14:41.400Z,91.18
2023-01-08T20:17:08.231Z,91.66
2023-01-08T20:19:35.018Z,91.77
2023-01-08T20:22:01.665Z,91.13
2023-01-08T20:24:29.789Z,91.78
2023-01-08T20:26:56.288Z,91.85
2023-01-08T20:29:23.108Z,91.75
2023-01-08T20:31:56.851Z,91.64
2023-01-08T20:34:24.420Z,92.06
2023-01-08T20:36:51.093Z,92.51
2023-01-08T20:39:18.462Z,92.70
2023-01-08T20:41:55.256Z,92.41
2023-01-08T20:44:28.029Z,93.24
2023-01-08T20:46:54.806Z,92.82
2023-01-08T20:49:21.583Z,92.94
2023-01-08T20:51:58.025Z,93.02
2023-01-08T20:54:26.220Z,93.21
2023-01-08T20:56:55.173Z,93.03
2023-01-08T20:59:24.213Z,93.44
2023-01-08T21:01:51.064Z,93.81
2023-01-08T21:04:18.339Z,94.13
2023-01-08T21:06:44.924Z,93.89
2023-01-08T21:09:11.593Z,93.82
2023-01-08T21:11:40.178Z,94.25
2023-01-08T21:14:08.235Z,94.40
2023-01-08T21:16:36.483Z,94.12
2023-01-08T21:19:03.835Z,94.05
2023-01-08T21:21:33.666Z,94.34
2023-01-08T21:24:04.252Z,94.10
2023-01-08T21:26:33.280Z,94.27
2023-01-08T21:29:02.894Z,94.30
2023-01-08T21:31:29.761Z,93.92
2023-01-08T21:33:58.396Z,94.47
2023-01-08T21:36:27.240Z,94.24
2023-01-08T21:38:55.668Z,94.20
2023-01-08T21:41:43.236Z,94.32
2023-01-08T21:44:33.008Z,93.93
2023-01-08T21:47:00.626Z,94.47
2023-01-08T21:49:27.931Z,94.42
2023-01-08T21:52:13.492Z,94.72
2023-01-08T21:54:40.340Z,94.66
2023-01-08T21:57:10.525Z,94.77
2023-01-08T21:59:37.672Z,94.97
2023-01-08T22:02:06.119Z,95.31
2023-01-08T22:04:33.621Z,95.55
2023-01-08T22:07:00.550Z,96.28
2023-01-08T22:09:27.237Z,95.80
2023-01-08T22:11:55.991Z,96.28
2023-01-08T22:14:23.342Z,96.56
2023-01-08T22:16:50.484Z,96.80
2023-01-08T22:19:17.121Z,97.37
2023-01-08T22:21:43.902Z,97.17
2023-01-08T22:24:10.617Z,97.90
2023-01-08T22:26:37.562Z,97.95
2023-01-08T22:29:05.914Z,97.82
2023-01-08T22:31:33.007Z,98.13
2023-01-08T22:33:59.962Z,98.36
2023-01-08T22:36:26.484Z,98.41
2023-01-08T22:38:53.129Z,98.35
2023-01-08T22:41:24.521Z,98.74
2023-01-08T22:43:56.647Z,99.07
2023-01-08T22:46:24.890Z,98.85
2023-01-08T22:48:51.650Z,99.08
2023-01-08T22:51:20.860Z,98.85
2023-01-08T22:53:47.603Z,98.68
2023-01-08T22:56:14.488Z,98.44
2023-01-08T22:58:48.256Z,98.44
2023-01-08T23:01:17.471Z,98.77
2023-01-08T23:03:44.835Z,98.88
2023-01-08T23:06:16.357Z,98.58
2023-01-08T23:08:44.252Z,98.48
2023-01-08T23:11:14.013Z,98.79
2023-01-08T23:13:41.284Z,98.28
2023-01-08T23:16:09.723Z,98.24
2023-01-08T23:18:37.328Z,98.78
2023-01-08T23:21:06.605Z,98.61
2023-01-08T23:23:33.228Z,98.72
2023-01-08T23:26:32.091Z,98.64
2023-01-08T23:28:59.223Z,98.98
2023-01-08T23:31:29.139Z,99.14
2023-01-08T23:33:56.552Z,98.90
2023-01-08T23:36:23.733Z,99.20
2023-01-08T23:38:52.997Z,99.04
2023-01-08T23:41:21.341Z,99.78
2023-01-08T23:43:49.233Z,99.63
2023-01-08T23:46:16.624Z,99.53
2023-01-08T23:48:43.275Z,99.52
2023-01-08T23:51:09.868Z,100.00
2023-01-08T23:53:36.421Z,99.77
2023-01-08T23:56:06.069Z,100.00
2023-01-08T23:58:32.575Z,100.00
